Time;durP1;ratioP1;P1;durP2;ratioP2;P2;SDS_P1;SDS_P2;PMS_P1;PMS_P2;Temp;Humidity;BMP_temperature;BMP_pressure;BME280_temperature;BME280_humidity;BME280_pressure;Samples;Min_cycle;Max_cycle;Signal;HPM_P1;HPM_P2
2022/04/16 00:02:07;;;;;;;36.55;22.05;;;;;;;;;;5055955;28;20098;-60
2022/04/16 00:04:33;;;;;;;32.75;21.02;;;;;;;;;;5055678;28;20098;-62
2022/04/16 00:07:01;;;;;;;29.67;20.70;;;;;;;;;;5055535;28;20113;-60
2022/04/16 00:09:27;;;;;;;30.73;20.80;;;;;;;;;;5055920;28;20049;-60
2022/04/16 00:11:53;;;;;;;;;;;;;;;;;;5052143;28;20416;-60
2022/04/16 00:14:19;;;;;;;32.10;22.60;;;;;;;;;;5052442;28;19931;-60
2022/04/16 00:16:47;;;;;;;34.17;23.05;;;;;;;;;;5052618;28;20071;-60
2022/04/16 00:19:14;;;;;;;38.17;23.60;;;;;;;;;;5052559;28;20049;-60
2022/04/16 00:21:40;;;;;;;34.22;22.48;;;;;;;;;;5052471;28;20048;-60
2022/04/16 00:24:07;;;;;;;35.85;23.77;;;;;;;;;;5067348;28;20489;-60
2022/04/16 00:26:38;;;;;;;37.42;23.88;;;;;;;;;;5051885;28;20354;-60
2022/04/16 00:29:04;;;;;;;32.65;23.63;;;;;;;;;;5050456;28;20435;-60
2022/04/16 00:31:30;;;;;;;40.70;23.83;;;;;;;;;;5051732;28;20087;-60
2022/04/16 00:33:56;;;;;;;37.85;25.83;;;;;;;;;;5052066;28;20041;-60
2022/04/16 00:36:22;;;;;;;36.38;24.70;;;;;;;;;;5051865;28;20064;-60
2022/04/16 00:38:48;;;;;;;37.42;24.05;;;;;;;;;;5052052;28;20126;-60
2022/04/16 00:41:15;;;;;;;39.85;25.20;;;;;;;;;;5067107;28;20049;-60
2022/04/16 00:43:41;;;;;;;42.05;26.65;;;;;;;;;;5051833;28;20110;-61
2022/04/16 00:46:07;;;;;;;36.22;25.00;;;;;;;;;;5050163;28;20159;-60
2022/04/16 00:48:33;;;;;;;36.60;23.70;;;;;;;;;;5051569;28;20044;-60
2022/04/16 00:50:59;;;;;;;37.42;23.83;;;;;;;;;;5051701;28;20052;-60
2022/04/16 00:53:27;;;;;;;37.10;23.65;;;;;;;;;;5051608;28;20067;-60
2022/04/16 00:55:53;;;;;;;37.22;24.23;;;;;;;;;;5050412;28;20084;-62
2022/04/16 00:58:19;;;;;;;36.72;24.20;;;;;;;;;;5051626;28;20114;-60
2022/04/16 01:00:45;;;;;;;36.75;23.33;;;;;;;;;;5051661;28;20055;-60
2022/04/16 01:03:11;;;;;;;37.17;23.48;;;;;;;;;;5066865;28;20182;-60
2022/04/16 01:05:37;;;;;;;35.47;23.50;;;;;;;;;;5051581;28;20348;-60
2022/04/16 01:08:04;;;;;;;38.60;24.88;;;;;;;;;;5051487;28;20438;-60
2022/04/16 01:10:31;;;;;;;35.83;24.90;;;;;;;;;;5050363;28;20048;-60
2022/04/16 01:12:59;;;;;;;36.80;24.02;;;;;;;;;;5051313;28;20045;-60
2022/04/16 01:15:25;;;;;;;34.90;23.55;;;;;;;;;;5051576;28;20056;-60
2022/04/16 01:17:52;;;;;;;40.60;25.90;;;;;;;;;;5051252;28;20148;-60
2022/04/16 01:20:18;;;;;;;36.38;24.65;;;;;;;;;;5051374;28;20100;-60
2022/04/16 01:22:45;;;;;;;37.78;25.25;;;;;;;;;;5049646;28;20045;-62
2022/04/16 01:25:12;;;;;;;37.88;24.90;;;;;;;;;;5051258;28;20084;-60
2022/04/16 01:27:45;;;;;;;37.55;24.42;;;;;;;;;;5051222;28;20059;-60
2022/04/16 01:30:12;;;;;;;43.22;25.95;;;;;;;;;;5051124;28;20377;-60
2022/04/16 01:32:38;;;;;;;39.10;26.02;;;;;;;;;;5066109;28;20132;-60
2022/04/16 01:35:05;;;;;;;37.72;24.23;;;;;;;;;;5051184;28;20422;-60
2022/04/16 01:37:34;;;;;;;39.55;25.88;;;;;;;;;;5049502;28;20049;-61
2022/04/16 01:40:00;;;;;;;42.03;26.50;;;;;;;;;;5050904;28;20092;-60
2022/04/16 01:42:29;;;;;;;40.78;26.52;;;;;;;;;;5050839;28;20056;-60
2022/04/16 01:44:56;;;;;;;39.22;25.55;;;;;;;;;;5050882;28;20154;-60
2022/04/16 01:47:22;;;;;;;41.08;26.65;;;;;;;;;;5050616;28;20497;-60
2022/04/16 01:49:48;;;;;;;39.53;26.13;;;;;;;;;;5050335;28;20131;-61
2022/04/16 01:52:14;;;;;;;42.70;26.90;;;;;;;;;;5050862;28;20130;-60
2022/04/16 01:54:41;;;;;;;41.80;27.42;;;;;;;;;;5050394;28;20496;-60
2022/04/16 01:57:07;;;;;;;;;;;;;;;;;;5050844;28;20071;-60
2022/04/16 01:59:33;;;;;;;41.95;27.88;;;;;;;;;;5048949;28;19924;-60
2022/04/16 02:01:59;;;;;;;39.80;27.55;;;;;;;;;;5050094;28;20057;-60
2022/04/16 02:04:26;;;;;;;40.35;27.05;;;;;;;;;;5050075;28;20473;-60
2022/04/16 02:06:53;;;;;;;41.92;28.90;;;;;;;;;;5049690;28;20056;-60
2022/04/16 02:09:19;;;;;;;;;;;;;;;;;;5050503;28;20425;-60
2022/04/16 02:11:50;;;;;;;42.17;28.52;;;;;;;;;;5050300;28;19928;-62
2022/04/16 02:14:16;;;;;;;43.22;29.40;;;;;;;;;;5049793;28;20080;-60
2022/04/16 02:16:42;;;;;;;42.55;27.40;;;;;;;;;;5065236;28;20139;-60
2022/04/16 02:19:09;;;;;;;45.85;29.92;;;;;;;;;;5049728;28;20471;-61
2022/04/16 02:21:35;;;;;;;44.13;30.83;;;;;;;;;;5049916;28;20133;-60
2022/04/16 02:24:01;;;;;;;43.08;29.13;;;;;;;;;;5049545;28;20044;-60
2022/04/16 02:26:28;;;;;;;43.20;29.50;;;;;;;;;;5048318;28;20052;-60
2022/04/16 02:28:54;;;;;;;45.42;30.17;;;;;;;;;;5049551;28;20037;-61
2022/04/16 02:31:20;;;;;;;45.38;30.23;;;;;;;;;;5049639;28;20124;-60
2022/04/16 02:33:46;;;;;;;48.83;33.22;;;;;;;;;;5049029;28;20044;-60
2022/04/16 02:36:12;;;;;;;49.20;34.03;;;;;;;;;;5048438;28;20056;-60
2022/04/16 02:38:42;;;;;;;50.88;34.20;;;;;;;;;;5049660;28;20045;-60
2022/04/16 02:41:08;;;;;;;49.83;33.42;;;;;;;;;;5049668;28;20474;-60
2022/04/16 02:43:34;;;;;;;47.25;30.95;;;;;;;;;;5048401;28;20134;-60
2022/04/16 02:48:45;;;;;;;47.00;31.05;;;;;;;;;;5049579;28;20422;-60
2022/04/16 02:51:12;;;;;;;45.20;32.42;;;;;;;;;;5049411;28;20099;-60
2022/04/16 02:53:38;;;;;;;44.28;29.10;;;;;;;;;;5049616;28;20089;-60
2022/04/16 02:56:04;;;;;;;47.20;30.45;;;;;;;;;;5049283;28;20059;-60
2022/04/16 02:58:30;;;;;;;44.95;30.10;;;;;;;;;;5048196;28;20096;-60
2022/04/16 03:00:56;;;;;;;42.40;29.75;;;;;;;;;;5049272;28;20056;-62
2022/04/16 03:03:22;;;;;;;46.90;31.67;;;;;;;;;;5049765;28;20037;-59
2022/04/16 03:05:48;;;;;;;47.25;31.23;;;;;;;;;;5050600;28;20053;-60
2022/04/16 03:08:15;;;;;;;43.75;29.95;;;;;;;;;;5049534;28;20107;-60
2022/04/16 03:10:41;;;;;;;44.17;30.25;;;;;;;;;;5064652;28;20053;-59
2022/04/16 03:13:08;;;;;;;44.33;31.10;;;;;;;;;;5049201;28;20045;-60
2022/04/16 03:18:19;;;;;;;46.92;32.72;;;;;;;;;;5049516;28;19940;-60
2022/04/16 03:20:45;;;;;;;48.05;32.63;;;;;;;;;;5049143;28;20067;-60
2022/04/16 03:23:11;;;;;;;49.40;32.78;;;;;;;;;;5049240;28;20045;-60
2022/04/16 03:25:43;;;;;;;49.85;34.63;;;;;;;;;;5047784;28;20106;-59
2022/04/16 03:28:10;;;;;;;46.42;33.58;;;;;;;;;;5047881;28;20057;-60
2022/04/16 03:30:36;;;;;;;47.20;33.67;;;;;;;;;;5049424;28;20138;-60
2022/04/16 03:33:02;;;;;;;49.72;33.42;;;;;;;;;;5048146;28;20477;-60
2022/04/16 03:35:30;;;;;;;52.38;35.45;;;;;;;;;;5050389;28;20063;-60
2022/04/16 03:37:56;;;;;;;51.03;34.15;;;;;;;;;;5048786;28;20163;-60
2022/04/16 03:40:24;;;;;;;54.75;35.55;;;;;;;;;;5048851;28;20045;-60
2022/04/16 03:42:55;;;;;;;56.45;36.53;;;;;;;;;;5063973;28;20118;-60
2022/04/16 03:45:23;;;;;;;55.17;37.38;;;;;;;;;;5049926;28;20135;-60
2022/04/16 03:47:49;;;;;;;53.78;37.38;;;;;;;;;;5052531;28;20049;-61
2022/04/16 03:50:16;;;;;;;52.85;36.78;;;;;;;;;;5051984;28;20055;-61
2022/04/16 03:52:42;;;;;;;54.97;35.35;;;;;;;;;;5067697;28;20055;-62
2022/04/16 04:00:48;;;;;;;53.45;37.05;;;;;;;;;;5052630;28;20103;-61
2022/04/16 04:03:15;;;;;;;55.58;37.72;;;;;;;;;;5051031;28;20078;-61
2022/04/16 04:05:42;;;;;;;57.40;37.08;;;;;;;;;;5052589;28;20142;-60
2022/04/16 04:08:09;;;;;;;55.17;38.80;;;;;;;;;;5052196;28;20064;-61
2022/04/16 04:10:38;;;;;;;60.47;39.25;;;;;;;;;;5067731;28;20104;-61
2022/04/16 04:13:05;;;;;;;54.10;37.50;;;;;;;;;;5052040;28;20040;-61
2022/04/16 04:15:31;;;;;;;65.03;39.92;;;;;;;;;;5052137;28;20465;-60
2022/04/16 04:17:59;;;;;;;59.72;39.70;;;;;;;;;;5052391;28;20041;-60
2022/04/16 04:20:25;;;;;;;60.42;40.45;;;;;;;;;;5052241;28;20053;-60
2022/04/16 04:22:51;;;;;;;;;;;;;;;;;;5052665;28;20505;-61
2022/04/16 04:25:17;;;;;;;59.08;39.67;;;;;;;;;;5051868;28;19963;-60
2022/04/16 04:27:43;;;;;;;55.75;38.38;;;;;;;;;;5052156;28;20103;-61
2022/04/16 04:30:10;;;;;;;59.88;39.72;;;;;;;;;;5051742;28;20465;-61
2022/04/16 04:32:36;;;;;;;60.20;41.08;;;;;;;;;;5050440;28;20159;-61
2022/04/16 04:35:03;;;;;;;61.13;42.85;;;;;;;;;;5051998;28;20473;-61
2022/04/16 04:37:29;;;;;;;59.60;41.83;;;;;;;;;;5051978;28;20044;-61
2022/04/16 04:39:55;;;;;;;61.88;43.47;;;;;;;;;;5051797;28;20083;-60
2022/04/16 04:42:27;;;;;;;59.90;41.63;;;;;;;;;;5051735;28;20051;-61
2022/04/16 04:44:54;;;;;;;62.28;41.55;;;;;;;;;;5051530;28;20162;-61
2022/04/16 04:47:20;;;;;;;59.42;42.88;;;;;;;;;;5051538;28;20106;-60
2022/04/16 04:49:46;;;;;;;65.80;42.08;;;;;;;;;;5051650;28;20215;-61
2022/04/16 04:52:20;;;;;;;61.42;42.90;;;;;;;;;;5051374;28;20045;-61
2022/04/16 04:59:58;;;;;;;59.75;41.58;;;;;;;;;;5157826;22;20083;-59
2022/04/16 05:02:24;;;;;;;61.03;41.15;;;;;;;;;;5009278;28;20132;-61
2022/04/16 05:04:50;;;;;;;55.22;39.22;;;;;;;;;;4989045;28;20050;-62
2022/04/16 05:07:16;;;;;;;55.72;38.35;;;;;;;;;;5005239;28;20069;-59
2022/04/16 05:09:42;;;;;;;56.80;38.45;;;;;;;;;;5003872;28;20080;-63
2022/04/16 05:12:08;;;;;;;55.08;37.72;;;;;;;;;;4996884;28;20152;-61
2022/04/16 05:14:34;;;;;;;57.40;37.38;;;;;;;;;;5002204;28;20387;-65
2022/04/16 05:17:00;;;;;;;52.03;36.00;;;;;;;;;;5006895;28;20144;-62
2022/04/16 05:19:27;;;;;;;53.10;36.53;;;;;;;;;;5007560;28;20624;-59
2022/04/16 05:21:53;;;;;;;52.60;35.22;;;;;;;;;;5008369;28;20053;-61
2022/04/16 05:24:19;;;;;;;49.05;34.17;;;;;;;;;;5004449;28;20041;-61
2022/04/16 05:26:45;;;;;;;48.83;32.83;;;;;;;;;;4989117;28;20414;-61
2022/04/16 05:29:11;;;;;;;53.55;33.58;;;;;;;;;;5009262;28;20121;-65
2022/04/16 05:31:37;;;;;;;;;;;;;;;;;;5006203;28;20046;-65
2022/04/16 05:34:18;;;;;;;43.97;29.73;;;;;;;;;;5008444;28;19921;-60
2022/04/16 05:36:46;;;;;;;43.53;29.00;;;;;;;;;;5004995;28;20042;-66
2022/04/16 05:39:12;;;;;;;39.78;28.15;;;;;;;;;;5001575;28;20065;-62
2022/04/16 05:41:38;;;;;;;44.90;29.52;;;;;;;;;;5003816;28;20112;-63
2022/04/16 05:44:05;;;;;;;46.10;30.45;;;;;;;;;;5005068;28;20173;-63
2022/04/16 05:46:31;;;;;;;46.38;31.17;;;;;;;;;;5002479;28;20355;-59
2022/04/16 05:48:58;;;;;;;;;;;;;;;;;;5008130;28;20561;-61
2022/04/16 05:51:26;;;;;;;44.47;30.75;;;;;;;;;;5005932;28;19964;-62
2022/04/16 05:53:52;;;;;;;69.07;29.52;;;;;;;;;;5005808;28;20148;-63
2022/04/16 05:56:18;;;;;;;;;;;;;;;;;;5002696;28;20054;-64
2022/04/16 05:58:45;;;;;;;42.55;27.20;;;;;;;;;;5002147;28;19937;-63
2022/04/16 06:01:11;;;;;;;41.58;27.33;;;;;;;;;;5006323;28;20447;-65
2022/04/16 06:03:41;;;;;;;45.17;30.88;;;;;;;;;;5005903;28;20049;-62
2022/04/16 06:06:07;;;;;;;44.22;29.35;;;;;;;;;;5005471;28;20065;-64
2022/04/16 06:08:37;;;;;;;44.03;29.60;;;;;;;;;;5005471;28;20125;-63
2022/04/16 06:11:06;;;;;;;46.47;29.73;;;;;;;;;;4999256;28;20100;-62
2022/04/16 06:13:32;;;;;;;46.03;29.33;;;;;;;;;;5003176;28;20038;-62
2022/04/16 06:15:59;;;;;;;46.47;30.58;;;;;;;;;;5013495;28;20049;-63
2022/04/16 06:18:25;;;;;;;42.22;29.30;;;;;;;;;;5006780;28;20182;-62
2022/04/16 06:20:51;;;;;;;43.83;29.52;;;;;;;;;;5006584;28;20149;-62
2022/04/16 06:23:19;;;;;;;45.40;28.95;;;;;;;;;;5002798;28;20059;-62
2022/04/16 06:25:45;;;;;;;44.85;28.60;;;;;;;;;;5006504;28;20056;-61
2022/04/16 06:28:14;;;;;;;44.30;28.27;;;;;;;;;;4982950;28;20447;-63
2022/04/16 06:30:40;;;;;;;40.08;25.83;;;;;;;;;;5005623;28;20169;-64
2022/04/16 06:33:06;;;;;;;37.50;23.27;;;;;;;;;;5004997;28;20209;-60
2022/04/16 06:35:34;;;;;;;36.05;23.13;;;;;;;;;;5003379;28;20108;-61
2022/04/16 06:38:00;;;;;;;37.42;22.38;;;;;;;;;;5003394;28;20072;-63
2022/04/16 06:40:26;;;;;;;34.70;23.17;;;;;;;;;;5016283;28;20094;-62
2022/04/16 06:42:54;;;;;;;33.20;21.83;;;;;;;;;;5008514;28;20127;-62
2022/04/16 06:45:21;;;;;;;34.35;21.88;;;;;;;;;;5003085;28;20049;-62
2022/04/16 06:47:47;;;;;;;33.00;21.52;;;;;;;;;;5005043;28;20119;-65
2022/04/16 06:50:13;;;;;;;33.88;21.65;;;;;;;;;;5005671;28;20460;-61
2022/04/16 06:52:39;;;;;;;;;;;;;;;;;;5005164;28;20065;-61
2022/04/16 06:55:05;;;;;;;33.20;21.75;;;;;;;;;;5005540;28;19925;-62
2022/04/16 06:57:32;;;;;;;31.73;19.75;;;;;;;;;;5005379;28;20133;-62
2022/04/16 06:59:58;;;;;;;33.33;20.02;;;;;;;;;;5005312;28;20053;-62
2022/04/16 07:02:27;;;;;;;31.45;19.65;;;;;;;;;;5004403;28;20169;-62
2022/04/16 07:04:53;;;;;;;34.53;19.70;;;;;;;;;;5005500;28;20108;-62
2022/04/16 07:07:19;;;;;;;32.33;19.23;;;;;;;;;;5005913;28;20062;-62
2022/04/16 07:09:45;;;;;;;32.45;19.33;;;;;;;;;;5003477;28;20123;-62
2022/04/16 07:12:11;;;;;;;33.17;18.98;;;;;;;;;;5005428;28;20409;-61
2022/04/16 07:14:39;;;;;;;32.95;19.48;;;;;;;;;;4996951;28;20050;-61
2022/04/16 07:17:06;;;;;;;33.78;20.27;;;;;;;;;;5003567;28;21338;-62
2022/04/16 07:19:33;;;;;;;33.70;21.67;;;;;;;;;;4987495;28;20198;-62
2022/04/16 07:21:59;;;;;;;33.90;21.65;;;;;;;;;;4990685;28;20066;-62
2022/04/16 07:24:25;;;;;;;;;;;;;;;;;;4994619;28;20138;-63
2022/04/16 07:26:55;;;;;;;71.75;21.70;;;;;;;;;;5004017;28;20357;-60
2022/04/16 07:29:21;;;;;;;;;;;;;;;;;;5011509;28;20430;-62
2022/04/16 07:31:47;;;;;;;29.63;18.45;;;;;;;;;;5008455;28;19921;-63
2022/04/16 07:34:13;;;;;;;;;;;;;;;;;;5009342;28;20038;-64
2022/04/16 07:36:43;;;;;;;27.88;16.92;;;;;;;;;;5007113;28;19926;-63
2022/04/16 07:39:12;;;;;;;30.08;17.67;;;;;;;;;;5010032;28;20042;-61
2022/04/16 07:41:39;;;;;;;27.60;16.23;;;;;;;;;;5009209;28;20061;-61
2022/04/16 07:44:05;;;;;;;25.75;15.20;;;;;;;;;;5009193;28;20041;-60
2022/04/16 07:46:31;;;;;;;25.10;14.70;;;;;;;;;;5006656;28;20478;-61
2022/04/16 07:48:57;;;;;;;;;;;;;;;;;;5007332;28;20498;-62
2022/04/16 07:51:24;;;;;;;28.38;15.65;;;;;;;;;;4996807;28;19921;-61
2022/04/16 07:53:50;;;;;;;;;;;;;;;;;;5010910;28;20044;-62
2022/04/16 07:56:16;;;;;;;26.80;15.85;;;;;;;;;;5010909;28;19921;-62
2022/04/16 07:58:42;;;;;;;24.10;15.10;;;;;;;;;;5011457;28;20104;-61
2022/04/16 08:01:08;;;;;;;27.25;16.13;;;;;;;;;;5005384;28;20073;-62
2022/04/16 08:03:40;;;;;;;27.23;15.48;;;;;;;;;;5010660;28;20046;-63
2022/04/16 08:06:06;;;;;;;27.50;14.10;;;;;;;;;;5011677;28;20041;-62
2022/04/16 08:08:32;;;;;;;25.05;15.00;;;;;;;;;;5005792;28;20148;-61
2022/04/16 08:10:58;;;;;;;27.10;14.75;;;;;;;;;;5010406;28;20049;-61
2022/04/16 08:13:25;;;;;;;27.65;13.40;;;;;;;;;;5009504;28;20112;-61
2022/04/16 08:15:51;;;;;;;22.40;12.20;;;;;;;;;;4991200;28;20046;-60
2022/04/16 08:18:17;;;;;;;28.55;12.45;;;;;;;;;;5009772;28;20060;-63
2022/04/16 08:20:44;;;;;;;18.98;10.23;;;;;;;;;;5010201;28;20049;-62
2022/04/16 08:23:11;;;;;;;17.63;9.80;;;;;;;;;;5010128;28;20409;-61
2022/04/16 08:28:04;;;;;;;19.40;8.07;;;;;;;;;;5010635;28;20337;-62
2022/04/16 08:30:30;;;;;;;35.13;8.13;;;;;;;;;;5010717;28;20394;-66
2022/04/16 08:32:56;;;;;;;;;;;;;;;;;;5010271;28;20203;-61
2022/04/16 08:35:25;;;;;;;17.92;7.85;;;;;;;;;;5010762;28;19929;-60
2022/04/16 08:37:52;;;;;;;17.45;7.13;;;;;;;;;;5010628;28;20054;-62
2022/04/16 08:40:18;;;;;;;;;;;;;;;;;;5010838;28;20359;-60
2022/04/16 08:42:45;;;;;;;12.88;5.38;;;;;;;;;;5009931;28;19956;-63
2022/04/16 08:45:13;;;;;;;12.55;5.63;;;;;;;;;;5009873;28;20183;-62
2022/04/16 08:47:39;;;;;;;12.43;5.80;;;;;;;;;;5009820;28;20057;-62
2022/04/16 08:50:07;;;;;;;14.80;6.05;;;;;;;;;;5010490;28;20054;-62
2022/04/16 08:52:35;;;;;;;11.30;4.60;;;;;;;;;;5009395;28;20050;-67
2022/04/16 08:55:03;;;;;;;19.67;4.95;;;;;;;;;;5010204;28;20069;-63
2022/04/16 08:57:29;;;;;;;13.18;4.50;;;;;;;;;;5009573;28;20453;-60
2022/04/16 08:59:57;;;;;;;11.80;5.18;;;;;;;;;;5008769;28;20408;-62
2022/04/16 09:02:24;;;;;;;10.77;3.88;;;;;;;;;;5009798;28;20050;-61
2022/04/16 09:05:01;;;;;;;9.93;4.38;;;;;;;;;;5009144;28;20073;-63
2022/04/16 09:07:26;;;;;;;;;;;;;;;;;;5008813;28;20396;-63
2022/04/16 09:09:53;;;;;;;10.15;3.65;;;;;;;;;;5008781;28;19955;-63
2022/04/16 09:12:19;;;;;;;10.55;3.88;;;;;;;;;;5007681;28;20085;-61
2022/04/16 09:14:46;;;;;;;;;;;;;;;;;;5007720;28;20429;-62
2022/04/16 09:17:18;;;;;;;11.88;3.97;;;;;;;;;;5009058;28;19929;-61
2022/04/16 09:20:03;;;;;;;13.30;4.25;;;;;;;;;;5008749;28;20121;-62
2022/04/16 09:22:33;;;;;;;11.05;3.33;;;;;;;;;;5008899;28;20466;-60
2022/04/16 09:24:59;;;;;;;9.63;3.58;;;;;;;;;;5008018;28;20388;-62
2022/04/16 09:27:25;;;;;;;13.18;2.80;;;;;;;;;;5009080;28;20133;-61
2022/04/16 09:29:54;;;;;;;9.82;3.00;;;;;;;;;;5007833;28;20137;-62
2022/04/16 09:32:23;;;;;;;7.20;2.80;;;;;;;;;;5008519;28;20446;-60
2022/04/16 09:34:49;;;;;;;6.75;2.22;;;;;;;;;;5006577;28;20045;-60
2022/04/16 09:37:15;;;;;;;7.38;2.55;;;;;;;;;;5007216;28;20117;-61
2022/04/16 09:39:42;;;;;;;8.35;2.60;;;;;;;;;;5007955;28;20121;-61
2022/04/16 09:42:08;;;;;;;7.22;2.40;;;;;;;;;;5008483;28;20143;-61
2022/04/16 09:44:34;;;;;;;9.30;2.47;;;;;;;;;;5008356;28;20099;-61
2022/04/16 09:47:00;;;;;;;7.80;2.60;;;;;;;;;;5006544;28;20450;-60
2022/04/16 09:49:26;;;;;;;8.25;2.50;;;;;;;;;;5008915;28;20465;-61
2022/04/16 09:51:52;;;;;;;10.68;2.50;;;;;;;;;;5008212;28;20049;-60
2022/04/16 09:54:21;;;;;;;6.50;2.20;;;;;;;;;;5008485;28;20069;-62
2022/04/16 09:56:48;;;;;;;11.68;2.65;;;;;;;;;;5007025;28;20073;-62
2022/04/16 09:59:13;;;;;;;;;;;;;;;;;;5007453;28;20109;-62
2022/04/16 10:01:47;;;;;;;7.82;2.40;;;;;;;;;;5008840;28;19922;-62
2022/04/16 10:04:19;;;;;;;8.38;2.35;;;;;;;;;;5009243;28;20366;-62
2022/04/16 10:06:46;;;;;;;11.82;2.63;;;;;;;;;;5008618;28;20411;-64
2022/04/16 10:09:13;;;;;;;9.50;2.60;;;;;;;;;;5008984;28;20090;-61
2022/04/16 10:14:38;;;;;;;8.15;2.60;;;;;;;;;;5008910;28;20080;-62
2022/04/16 10:17:10;;;;;;;9.38;2.35;;;;;;;;;;5007983;28;20120;-61
2022/04/16 10:19:37;;;;;;;7.60;2.33;;;;;;;;;;5009081;28;20394;-62
2022/04/16 10:22:03;;;;;;;7.05;2.33;;;;;;;;;;5008384;28;20226;-63
2022/04/16 10:24:29;;;;;;;11.15;2.65;;;;;;;;;;5008717;28;20212;-63
2022/04/16 10:27:03;;;;;;;6.03;2.28;;;;;;;;;;5008070;28;20050;-62
2022/04/16 10:29:34;;;;;;;6.05;2.33;;;;;;;;;;5008181;28;20049;-63
2022/04/16 10:32:00;;;;;;;7.28;2.60;;;;;;;;;;5008282;28;20060;-61
2022/04/16 10:34:30;;;;;;;6.15;2.13;;;;;;;;;;5008081;28;20120;-61
2022/04/16 10:36:57;;;;;;;6.72;2.30;;;;;;;;;;5006446;28;20046;-61
2022/04/16 10:39:34;;;;;;;7.90;2.40;;;;;;;;;;5007868;28;20128;-63
2022/04/16 10:42:04;;;;;;;8.90;2.38;;;;;;;;;;5006805;28;20053;-61
2022/04/16 10:44:31;;;;;;;8.18;2.50;;;;;;;;;;5006752;28;20065;-63
2022/04/16 10:47:00;;;;;;;6.78;2.40;;;;;;;;;;5006940;28;20127;-62
2022/04/16 10:49:31;;;;;;;6.70;2.35;;;;;;;;;;5007019;28;20397;-61
2022/04/16 10:51:57;;;;;;;8.23;2.75;;;;;;;;;;4987632;28;20378;-63
2022/04/16 10:54:28;;;;;;;7.07;2.28;;;;;;;;;;4986142;28;20061;-62
2022/04/16 10:56:54;;;;;;;8.25;2.50;;;;;;;;;;4987287;28;20054;-63
2022/04/16 10:59:36;;;;;;;7.22;2.47;;;;;;;;;;4988028;28;20069;-63
2022/04/16 11:02:02;;;;;;;6.65;2.05;;;;;;;;;;4987655;28;20133;-62
2022/04/16 11:04:28;;;;;;;6.38;2.42;;;;;;;;;;5002434;28;20091;-63
2022/04/16 11:06:57;;;;;;;5.57;2.20;;;;;;;;;;4991501;28;20053;-61
2022/04/16 11:09:23;;;;;;;5.38;2.13;;;;;;;;;;5007376;28;20049;-61
2022/04/16 11:11:52;;;;;;;7.22;2.20;;;;;;;;;;5005875;28;20052;-67
2022/04/16 11:14:18;;;;;;;6.07;2.03;;;;;;;;;;5007985;28;20045;-64
2022/04/16 11:16:47;;;;;;;8.32;2.33;;;;;;;;;;5007803;28;20045;-64
2022/04/16 11:19:17;;;;;;;5.80;2.00;;;;;;;;;;5007681;28;20049;-63
2022/04/16 11:21:46;;;;;;;7.00;2.17;;;;;;;;;;5008344;28;20499;-62
2022/04/16 11:24:13;;;;;;;9.25;2.50;;;;;;;;;;5007576;28;20050;-62
2022/04/16 11:34:57;;;;;;;6.72;2.22;;;;;;;;;;4988821;28;20133;-64
2022/04/16 11:37:24;;;;;;;6.25;2.20;;;;;;;;;;4989052;28;20472;-64
2022/04/16 11:40:00;;;;;;;7.25;2.28;;;;;;;;;;4989767;28;20109;-62
2022/04/16 11:42:26;;;;;;;7.23;2.20;;;;;;;;;;5004513;28;20049;-61
2022/04/16 11:44:53;;;;;;;8.15;2.40;;;;;;;;;;5009243;28;20125;-62
2022/04/16 11:47:23;;;;;;;70.80;6.30;;;;;;;;;;5007947;28;20050;-61
2022/04/16 11:49:53;;;;;;;11.57;2.30;;;;;;;;;;5009314;28;20049;-64
2022/04/16 11:52:23;;;;;;;6.78;2.22;;;;;;;;;;5009415;28;20134;-63
2022/04/16 11:54:59;;;;;;;7.65;2.20;;;;;;;;;;4991213;28;20086;-64
2022/04/16 11:57:28;;;;;;;6.75;2.28;;;;;;;;;;5009194;28;20144;-66
2022/04/16 12:00:08;;;;;;;9.85;2.58;;;;;;;;;;5008519;28;20062;-63
2022/04/16 12:02:36;;;;;;;6.40;2.08;;;;;;;;;;5008635;28;20381;-63
2022/04/16 12:05:18;;;;;;;6.95;2.03;;;;;;;;;;5007246;28;20058;-64
2022/04/16 12:07:46;;;;;;;6.15;2.53;;;;;;;;;;5010676;28;20057;-62
2022/04/16 12:10:14;;;;;;;7.78;2.08;;;;;;;;;;4994722;28;20069;-62
2022/04/16 12:12:45;;;;;;;6.38;2.30;;;;;;;;;;5009124;28;20469;-64
2022/04/16 12:15:11;;;;;;;6.25;2.03;;;;;;;;;;5007982;28;20508;-65
2022/04/16 12:17:41;;;;;;;6.35;2.20;;;;;;;;;;4999947;28;20042;-63
2022/04/16 12:20:08;;;;;;;9.50;2.28;;;;;;;;;;4990090;28;20181;-64
2022/04/16 12:22:47;;;;;;;8.52;2.40;;;;;;;;;;4990684;28;20447;-65
2022/04/16 12:25:14;;;;;;;7.18;2.20;;;;;;;;;;4990705;28;20073;-64
2022/04/16 12:27:48;;;;;;;5.63;2.20;;;;;;;;;;5005968;28;20057;-61
2022/04/16 12:30:24;;;;;;;9.93;2.60;;;;;;;;;;5005578;28;20045;-61
2022/04/16 12:32:57;;;;;;;6.85;2.40;;;;;;;;;;5010537;28;20093;-63
2022/04/16 12:35:24;;;;;;;6.60;2.38;;;;;;;;;;5009995;28;20100;-63
2022/04/16 12:37:51;;;;;;;8.85;2.40;;;;;;;;;;5010334;28;20046;-62
2022/04/16 12:40:18;;;;;;;5.88;2.40;;;;;;;;;;5011438;28;20045;-63
2022/04/16 12:42:44;;;;;;;8.68;2.58;;;;;;;;;;5011683;28;20041;-62
2022/04/16 12:45:10;;;;;;;6.03;2.45;;;;;;;;;;5010770;28;20038;-62
2022/04/16 12:47:43;;;;;;;13.02;2.35;;;;;;;;;;5012343;28;20306;-64
2022/04/16 12:50:09;;;;;;;7.28;2.50;;;;;;;;;;5010672;28;20060;-63
2022/04/16 12:52:35;;;;;;;6.50;2.58;;;;;;;;;;5011684;28;20050;-65
2022/04/16 12:55:01;;;;;;;;;;;;;;;;;;5010053;28;20046;-65
2022/04/16 12:57:27;;;;;;;9.00;2.47;;;;;;;;;;5008972;28;19928;-64
2022/04/16 12:59:53;;;;;;;;;;;;;;;;;;5012034;28;20508;-76
2022/04/16 13:02:20;;;;;;;7.82;2.10;;;;;;;;;;4992611;28;19922;-65
2022/04/16 13:04:46;;;;;;;8.88;2.10;;;;;;;;;;5008968;28;20104;-61
2022/04/16 13:07:12;;;;;;;8.40;2.40;;;;;;;;;;5003675;28;20100;-67
2022/04/16 13:09:38;;;;;;;9.85;2.63;;;;;;;;;;5003279;28;20080;-77
2022/04/16 13:12:04;;;;;;;7.97;2.40;;;;;;;;;;5004342;28;20085;-69
2022/04/16 13:14:30;;;;;;;7.28;2.17;;;;;;;;;;5003396;28;20141;-63
2022/04/16 13:16:56;;;;;;;7.80;2.47;;;;;;;;;;5010695;28;20065;-65
2022/04/16 13:19:26;;;;;;;4.75;2.20;;;;;;;;;;5008409;28;20314;-61
2022/04/16 13:21:53;;;;;;;6.30;2.35;;;;;;;;;;5009789;28;20052;-64
2022/04/16 13:24:19;;;;;;;7.68;2.22;;;;;;;;;;5006557;28;20046;-63
2022/04/16 13:26:45;;;;;;;6.53;2.30;;;;;;;;;;5009107;28;20456;-62
2022/04/16 13:29:12;;;;;;;7.63;2.25;;;;;;;;;;5013574;28;20090;-60
2022/04/16 13:31:41;;;;;;;8.50;2.38;;;;;;;;;;5019121;28;20050;-67
2022/04/16 13:34:12;;;;;;;6.55;2.33;;;;;;;;;;5003099;28;20108;-67
2022/04/16 13:36:38;;;;;;;7.43;2.33;;;;;;;;;;5003557;28;20124;-62
2022/04/16 13:39:05;;;;;;;6.78;2.50;;;;;;;;;;5009283;28;20038;-65
2022/04/16 13:41:40;;;;;;;7.20;2.20;;;;;;;;;;5001938;28;20362;-66
2022/04/16 13:44:07;;;;;;;7.95;2.13;;;;;;;;;;5008647;28;20057;-65
2022/04/16 13:46:33;;;;;;;;;;;;;;;;;;5007800;28;20151;-66
2022/04/16 13:48:59;;;;;;;5.68;2.35;;;;;;;;;;5004816;28;20023;-66
2022/04/16 13:51:25;;;;;;;4.65;2.10;;;;;;;;;;5006585;28;20120;-65
2022/04/16 13:53:54;;;;;;;8.88;2.40;;;;;;;;;;5007247;28;20117;-67
2022/04/16 13:56:21;;;;;;;9.82;2.60;;;;;;;;;;5000121;28;20049;-67
2022/04/16 13:58:47;;;;;;;11.80;2.20;;;;;;;;;;5004429;28;20073;-68
2022/04/16 14:01:16;;;;;;;9.98;2.25;;;;;;;;;;5006303;28;20165;-67
2022/04/16 14:03:42;;;;;;;7.07;2.20;;;;;;;;;;5005314;28;20136;-67
2022/04/16 14:06:09;;;;;;;7.80;2.30;;;;;;;;;;5006885;28;20092;-66
2022/04/16 14:08:35;;;;;;;7.55;2.20;;;;;;;;;;5007002;28;20504;-65
2022/04/16 14:11:01;;;;;;;7.00;2.33;;;;;;;;;;5006044;28;20049;-64
2022/04/16 14:13:32;;;;;;;;;;;;;;;;;;5004463;28;20038;-66
2022/04/16 14:15:58;;;;;;;9.63;2.72;;;;;;;;;;4998231;28;19962;-63
2022/04/16 14:18:25;;;;;;;;;;;;;;;;;;5005166;28;20054;-63
2022/04/16 14:20:54;;;;;;;7.38;2.10;;;;;;;;;;5007592;28;20328;-68
2022/04/16 14:23:20;;;;;;;7.38;2.65;;;;;;;;;;5004654;28;20179;-65
2022/04/16 14:25:47;;;;;;;7.45;2.47;;;;;;;;;;5005574;28;20506;-62
2022/04/16 14:28:13;;;;;;;;;;;;;;;;;;5005458;28;20065;-70
2022/04/16 14:30:39;;;;;;;6.55;2.45;;;;;;;;;;5006285;28;19930;-71
2022/04/16 14:33:10;;;;;;;10.30;2.70;;;;;;;;;;5004459;28;20049;-66
2022/04/16 14:35:36;;;;;;;6.47;2.50;;;;;;;;;;5003829;28;20046;-67
2022/04/16 14:38:03;;;;;;;7.35;2.45;;;;;;;;;;5007502;28;20062;-64
2022/04/16 14:40:30;;;;;;;10.13;2.40;;;;;;;;;;5005049;28;20054;-64
2022/04/16 14:42:56;;;;;;;8.30;2.65;;;;;;;;;;4989371;28;20065;-64
2022/04/16 14:45:22;;;;;;;8.48;2.40;;;;;;;;;;4996037;28;20050;-66
2022/04/16 14:47:48;;;;;;;10.73;2.40;;;;;;;;;;5007722;28;20049;-67
2022/04/16 14:50:15;;;;;;;6.72;2.40;;;;;;;;;;5004639;28;20110;-72
2022/04/16 14:52:41;;;;;;;5.88;2.20;;;;;;;;;;5003681;28;20046;-64
2022/04/16 14:55:09;;;;;;;8.27;2.42;;;;;;;;;;5004496;28;20050;-64
2022/04/16 14:57:35;;;;;;;8.05;2.80;;;;;;;;;;5005382;28;20469;-65
2022/04/16 15:00:01;;;;;;;7.35;2.70;;;;;;;;;;5003831;28;20377;-63
2022/04/16 15:02:27;;;;;;;7.55;2.63;;;;;;;;;;5005953;28;20478;-64
2022/04/16 15:04:53;;;;;;;8.05;2.70;;;;;;;;;;5005022;28;20064;-63
2022/04/16 15:07:19;;;;;;;7.63;2.40;;;;;;;;;;4987966;28;20057;-64